sensor_id;sensor_type;location;lat;lon;timestamp;P1;durP1;ratioP1;P2;durP2;ratioP2
9860;SDS011;4969;52.304;4.968;2024-03-23T00:55:59;16.15;;;5.35;;
9860;SDS011;4969;52.304;4.968;2024-03-23T00:58:25;13.73;;;5.22;;
9860;SDS011;4969;52.304;4.968;2024-03-23T01:00:51;12.05;;;4.47;;
9860;SDS011;4969;52.304;4.968;2024-03-23T01:03:17;12.15;;;4.95;;
9860;SDS011;4969;52.304;4.968;2024-03-23T01:05:43;11.52;;;5.00;;
9860;SDS011;4969;52.304;4.968;2024-03-23T01:08:09;13.45;;;4.65;;
9860;SDS011;4969;52.304;4.968;2024-03-23T01:10:37;16.25;;;4.80;;
9860;SDS011;4969;52.304;4.968;2024-03-23T01:13:02;14.63;;;5.43;;
9860;SDS011;4969;52.304;4.968;2024-03-23T01:15:29;11.82;;;4.72;;
9860;SDS011;4969;52.304;4.968;2024-03-23T01:17:54;11.65;;;4.85;;
9860;SDS011;4969;52.304;4.968;2024-03-23T01:20:21;12.30;;;4.32;;
9860;SDS011;4969;52.304;4.968;2024-03-23T01:22:46;11.85;;;4.63;;
9860;SDS011;4969;52.304;4.968;2024-03-23T01:25:13;12.88;;;4.80;;
9860;SDS011;4969;52.304;4.968;2024-03-23T01:27:40;12.82;;;4.85;;
9860;SDS011;4969;52.304;4.968;2024-03-23T01:30:07;15.60;;;4.93;;
9860;SDS011;4969;52.304;4.968;2024-03-23T01:32:32;12.73;;;4.63;;
9860;SDS011;4969;52.304;4.968;2024-03-23T01:34:59;11.25;;;4.55;;
9860;SDS011;4969;52.304;4.968;2024-03-23T01:37:24;12.88;;;4.78;;
9860;SDS011;4969;52.304;4.968;2024-03-23T01:39:51;11.05;;;4.25;;
9860;SDS011;4969;52.304;4.968;2024-03-23T01:42:17;12.05;;;4.15;;
9860;SDS011;4969;52.304;4.968;2024-03-23T01:44:44;10.57;;;4.50;;
9860;SDS011;4969;52.304;4.968;2024-03-23T01:47:10;12.40;;;4.40;;
9860;SDS011;4969;52.304;4.968;2024-03-23T01:49:37;10.73;;;4.50;;
9860;SDS011;4969;52.304;4.968;2024-03-23T01:52:03;9.70;;;3.95;;
9860;SDS011;4969;52.304;4.968;2024-03-23T01:54:30;8.82;;;3.92;;
9860;SDS011;4969;52.304;4.968;2024-03-23T01:56:56;10.85;;;4.05;;
9860;SDS011;4969;52.304;4.968;2024-03-23T01:59:23;12.35;;;4.20;;
9860;SDS011;4969;52.304;4.968;2024-03-23T02:01:50;12.90;;;4.57;;
9860;SDS011;4969;52.304;4.968;2024-03-23T02:04:16;8.63;;;3.63;;
9860;SDS011;4969;52.304;4.968;2024-03-23T02:06:42;11.23;;;4.10;;
9860;SDS011;4969;52.304;4.968;2024-03-23T02:09:08;13.55;;;4.55;;
9860;SDS011;4969;52.304;4.968;2024-03-23T02:11:34;11.73;;;4.45;;
9860;SDS011;4969;52.304;4.968;2024-03-23T02:14:00;11.77;;;4.13;;
9860;SDS011;4969;52.304;4.968;2024-03-23T02:16:26;9.18;;;3.50;;
9860;SDS011;4969;52.304;4.968;2024-03-23T02:18:54;10.55;;;3.92;;
9860;SDS011;4969;52.304;4.968;2024-03-23T02:21:19;11.73;;;4.13;;
9860;SDS011;4969;52.304;4.968;2024-03-23T02:23:47;12.73;;;3.65;;
9860;SDS011;4969;52.304;4.968;2024-03-23T02:26:13;12.23;;;4.05;;
9860;SDS011;4969;52.304;4.968;2024-03-23T02:28:40;11.38;;;3.33;;
9860;SDS011;4969;52.304;4.968;2024-03-23T02:31:05;7.72;;;2.90;;
9860;SDS011;4969;52.304;4.968;2024-03-23T02:33:32;7.97;;;2.80;;
9860;SDS011;4969;52.304;4.968;2024-03-23T02:35:59;12.52;;;3.10;;
9860;SDS011;4969;52.304;4.968;2024-03-23T02:38:25;10.38;;;3.00;;
9860;SDS011;4969;52.304;4.968;2024-03-23T02:40:52;12.63;;;3.40;;
9860;SDS011;4969;52.304;4.968;2024-03-23T02:43:19;7.43;;;2.72;;
9860;SDS011;4969;52.304;4.968;2024-03-23T02:45:44;9.60;;;2.77;;
9860;SDS011;4969;52.304;4.968;2024-03-23T02:48:11;8.50;;;2.83;;
9860;SDS011;4969;52.304;4.968;2024-03-23T02:50:36;9.90;;;3.22;;
9860;SDS011;4969;52.304;4.968;2024-03-23T02:53:03;9.25;;;3.05;;
9860;SDS011;4969;52.304;4.968;2024-03-23T02:55:29;10.52;;;2.72;;
9860;SDS011;4969;52.304;4.968;2024-03-23T02:57:57;13.18;;;3.22;;
9860;SDS011;4969;52.304;4.968;2024-03-23T03:00:26;6.97;;;2.55;;
9860;SDS011;4969;52.304;4.968;2024-03-23T03:02:53;8.57;;;2.75;;
9860;SDS011;4969;52.304;4.968;2024-03-23T03:05:19;10.40;;;2.90;;
9860;SDS011;4969;52.304;4.968;2024-03-23T03:07:45;8.23;;;2.75;;
9860;SDS011;4969;52.304;4.968;2024-03-23T03:10:11;9.07;;;2.63;;
9860;SDS011;4969;52.304;4.968;2024-03-23T03:12:37;7.15;;;2.53;;
9860;SDS011;4969;52.304;4.968;2024-03-23T03:15:05;9.98;;;2.75;;
9860;SDS011;4969;52.304;4.968;2024-03-23T03:17:32;8.25;;;2.67;;
9860;SDS011;4969;52.304;4.968;2024-03-23T03:19:58;9.80;;;2.78;;
9860;SDS011;4969;52.304;4.968;2024-03-23T03:22:24;7.75;;;2.53;;
9860;SDS011;4969;52.304;4.968;2024-03-23T03:24:50;8.63;;;2.92;;
9860;SDS011;4969;52.304;4.968;2024-03-23T03:27:16;8.13;;;2.72;;
9860;SDS011;4969;52.304;4.968;2024-03-23T03:29:42;8.57;;;2.90;;
9860;SDS011;4969;52.304;4.968;2024-03-23T03:32:10;8.57;;;2.60;;
9860;SDS011;4969;52.304;4.968;2024-03-23T03:34:35;8.55;;;2.38;;
9860;SDS011;4969;52.304;4.968;2024-03-23T03:37:02;7.50;;;2.38;;
9860;SDS011;4969;52.304;4.968;2024-03-23T03:39:27;4.82;;;2.35;;
9860;SDS011;4969;52.304;4.968;2024-03-23T03:41:54;7.20;;;2.85;;
9860;SDS011;4969;52.304;4.968;2024-03-23T03:44:19;7.03;;;2.42;;
9860;SDS011;4969;52.304;4.968;2024-03-23T03:46:46;9.20;;;2.45;;
9860;SDS011;4969;52.304;4.968;2024-03-23T03:49:13;8.13;;;2.65;;
9860;SDS011;4969;52.304;4.968;2024-03-23T03:51:40;6.65;;;2.45;;
9860;SDS011;4969;52.304;4.968;2024-03-23T03:54:06;7.93;;;2.30;;
9860;SDS011;4969;52.304;4.968;2024-03-23T03:56:32;7.78;;;2.42;;
9860;SDS011;4969;52.304;4.968;2024-03-23T03:58:58;10.02;;;2.50;;
9860;SDS011;4969;52.304;4.968;2024-03-23T04:01:24;6.85;;;2.17;;
9860;SDS011;4969;52.304;4.968;2024-03-23T04:03:50;10.23;;;2.33;;
9860;SDS011;4969;52.304;4.968;2024-03-23T04:06:20;5.35;;;2.40;;
9860;SDS011;4969;52.304;4.968;2024-03-23T04:08:46;5.68;;;2.15;;
9860;SDS011;4969;52.304;4.968;2024-03-23T04:11:12;6.70;;;2.20;;
9860;SDS011;4969;52.304;4.968;2024-03-23T04:13:38;5.85;;;2.95;;
9860;SDS011;4969;52.304;4.968;2024-03-23T04:16:06;11.77;;;2.60;;
9860;SDS011;4969;52.304;4.968;2024-03-23T04:18:32;6.95;;;2.10;;
9860;SDS011;4969;52.304;4.968;2024-03-23T04:20:58;6.05;;;2.78;;
9860;SDS011;4969;52.304;4.968;2024-03-23T04:23:25;6.72;;;2.63;;
9860;SDS011;4969;52.304;4.968;2024-03-23T04:25:52;4.93;;;2.33;;
9860;SDS011;4969;52.304;4.968;2024-03-23T04:28:18;7.28;;;2.80;;
9860;SDS011;4969;52.304;4.968;2024-03-23T04:30:45;8.60;;;2.40;;
9860;SDS011;4969;52.304;4.968;2024-03-23T04:33:10;8.82;;;2.65;;
9860;SDS011;4969;52.304;4.968;2024-03-23T04:35:37;6.60;;;2.47;;
9860;SDS011;4969;52.304;4.968;2024-03-23T04:38:02;7.13;;;2.30;;
9860;SDS011;4969;52.304;4.968;2024-03-23T04:40:30;4.85;;;2.10;;
9860;SDS011;4969;52.304;4.968;2024-03-23T04:42:57;4.85;;;2.10;;
9860;SDS011;4969;52.304;4.968;2024-03-23T04:45:23;7.38;;;1.77;;
9860;SDS011;4969;52.304;4.968;2024-03-23T04:47:50;10.85;;;2.40;;
9860;SDS011;4969;52.304;4.968;2024-03-23T04:50:15;6.18;;;2.13;;
9860;SDS011;4969;52.304;4.968;2024-03-23T04:52:42;8.60;;;2.15;;
9860;SDS011;4969;52.304;4.968;2024-03-23T04:55:07;5.93;;;2.20;;
9860;SDS011;4969;52.304;4.968;2024-03-23T04:57:35;6.45;;;2.10;;
9860;SDS011;4969;52.304;4.968;2024-03-23T05:00:02;9.32;;;2.55;;
9860;SDS011;4969;52.304;4.968;2024-03-23T05:02:29;7.20;;;2.40;;
9860;SDS011;4969;52.304;4.968;2024-03-23T05:04:56;8.45;;;2.35;;
9860;SDS011;4969;52.304;4.968;2024-03-23T05:07:21;7.03;;;2.33;;
9860;SDS011;4969;52.304;4.968;2024-03-23T05:09:48;6.22;;;2.10;;
9860;SDS011;4969;52.304;4.968;2024-03-23T05:12:14;5.45;;;1.90;;
9860;SDS011;4969;52.304;4.968;2024-03-23T05:14:42;8.60;;;2.65;;
9860;SDS011;4969;52.304;4.968;2024-03-23T05:17:07;7.80;;;2.42;;
9860;SDS011;4969;52.304;4.968;2024-03-23T05:19:34;8.07;;;2.20;;
9860;SDS011;4969;52.304;4.968;2024-03-23T05:21:59;6.07;;;2.20;;
9860;SDS011;4969;52.304;4.968;2024-03-23T05:24:26;8.20;;;2.10;;
9860;SDS011;4969;52.304;4.968;2024-03-23T05:26:51;6.47;;;2.20;;
9860;SDS011;4969;52.304;4.968;2024-03-23T05:29:18;9.40;;;2.10;;
9860;SDS011;4969;52.304;4.968;2024-03-23T05:31:49;8.03;;;2.27;;
9860;SDS011;4969;52.304;4.968;2024-03-23T05:34:16;9.27;;;2.60;;
9860;SDS011;4969;52.304;4.968;2024-03-23T05:36:42;9.47;;;2.40;;
9860;SDS011;4969;52.304;4.968;2024-03-23T05:39:08;9.80;;;2.80;;
9860;SDS011;4969;52.304;4.968;2024-03-23T05:41:34;8.90;;;3.00;;
9860;SDS011;4969;52.304;4.968;2024-03-23T05:44:01;8.37;;;3.10;;
9860;SDS011;4969;52.304;4.968;2024-03-23T05:46:26;10.00;;;3.00;;
9860;SDS011;4969;52.304;4.968;2024-03-23T05:48:54;9.50;;;2.80;;
9860;SDS011;4969;52.304;4.968;2024-03-23T05:51:27;9.47;;;3.00;;
9860;SDS011;4969;52.304;4.968;2024-03-23T05:53:53;9.97;;;3.00;;
9860;SDS011;4969;52.304;4.968;2024-03-23T05:56:19;10.27;;;3.60;;
9860;SDS011;4969;52.304;4.968;2024-03-23T05:58:46;7.70;;;2.30;;
9860;SDS011;4969;52.304;4.968;2024-03-23T06:01:11;9.60;;;2.60;;
9860;SDS011;4969;52.304;4.968;2024-03-23T06:03:38;7.67;;;2.80;;
9860;SDS011;4969;52.304;4.968;2024-03-23T06:06:05;6.83;;;2.33;;
9860;SDS011;4969;52.304;4.968;2024-03-23T06:08:36;10.63;;;3.53;;
9860;SDS011;4969;52.304;4.968;2024-03-23T06:11:02;8.73;;;2.87;;
9860;SDS011;4969;52.304;4.968;2024-03-23T06:13:31;7.00;;;2.50;;
9860;SDS011;4969;52.304;4.968;2024-03-23T06:15:56;9.27;;;2.77;;
9860;SDS011;4969;52.304;4.968;2024-03-23T06:18:23;7.17;;;2.70;;
9860;SDS011;4969;52.304;4.968;2024-03-23T06:20:49;9.57;;;3.07;;
9860;SDS011;4969;52.304;4.968;2024-03-23T06:23:17;9.33;;;3.10;;
9860;SDS011;4969;52.304;4.968;2024-03-23T06:25:45;5.67;;;2.33;;
9860;SDS011;4969;52.304;4.968;2024-03-23T06:28:11;8.07;;;2.80;;
9860;SDS011;4969;52.304;4.968;2024-03-23T06:30:37;6.47;;;2.80;;
9860;SDS011;4969;52.304;4.968;2024-03-23T06:33:03;9.80;;;3.10;;
9860;SDS011;4969;52.304;4.968;2024-03-23T06:35:30;8.03;;;2.90;;
9860;SDS011;4969;52.304;4.968;2024-03-23T06:37:57;8.27;;;3.00;;
9860;SDS011;4969;52.304;4.968;2024-03-23T06:40:24;8.30;;;2.90;;
9860;SDS011;4969;52.304;4.968;2024-03-23T06:42:51;7.93;;;3.23;;
9860;SDS011;4969;52.304;4.968;2024-03-23T06:45:16;12.27;;;3.23;;
9860;SDS011;4969;52.304;4.968;2024-03-23T06:47:48;8.47;;;3.33;;
9860;SDS011;4969;52.304;4.968;2024-03-23T06:50:13;6.83;;;2.80;;
9860;SDS011;4969;52.304;4.968;2024-03-23T06:52:40;9.83;;;2.97;;
9860;SDS011;4969;52.304;4.968;2024-03-23T06:55:05;9.80;;;3.30;;
9860;SDS011;4969;52.304;4.968;2024-03-23T06:57:34;8.20;;;3.20;;
9860;SDS011;4969;52.304;4.968;2024-03-23T06:59:59;7.83;;;2.90;;
9860;SDS011;4969;52.304;4.968;2024-03-23T07:02:26;7.77;;;2.70;;
9860;SDS011;4969;52.304;4.968;2024-03-23T07:04:51;8.10;;;2.33;;
9860;SDS011;4969;52.304;4.968;2024-03-23T07:07:18;9.67;;;2.77;;
9860;SDS011;4969;52.304;4.968;2024-03-23T07:09:43;5.63;;;2.47;;
9860;SDS011;4969;52.304;4.968;2024-03-23T07:12:10;7.47;;;2.90;;
9860;SDS011;4969;52.304;4.968;2024-03-23T07:14:37;9.57;;;2.63;;
9860;SDS011;4969;52.304;4.968;2024-03-23T07:17:03;8.50;;;2.80;;
9860;SDS011;4969;52.304;4.968;2024-03-23T07:19:29;9.73;;;2.87;;
9860;SDS011;4969;52.304;4.968;2024-03-23T07:21:56;9.93;;;2.83;;
9860;SDS011;4969;52.304;4.968;2024-03-23T07:24:21;8.00;;;2.73;;
9860;SDS011;4969;52.304;4.968;2024-03-23T07:26:48;8.00;;;2.50;;
9860;SDS011;4969;52.304;4.968;2024-03-23T07:29:13;7.87;;;3.00;;
9860;SDS011;4969;52.304;4.968;2024-03-23T07:31:41;9.10;;;2.57;;
9860;SDS011;4969;52.304;4.968;2024-03-23T07:34:07;8.60;;;2.73;;
9860;SDS011;4969;52.304;4.968;2024-03-23T07:36:33;7.80;;;2.30;;
9860;SDS011;4969;52.304;4.968;2024-03-23T07:38:59;11.43;;;2.80;;
9860;SDS011;4969;52.304;4.968;2024-03-23T07:41:26;10.43;;;2.40;;
9860;SDS011;4969;52.304;4.968;2024-03-23T07:43:53;10.17;;;2.47;;
9860;SDS011;4969;52.304;4.968;2024-03-23T07:46:20;7.53;;;2.43;;
9860;SDS011;4969;52.304;4.968;2024-03-23T07:48:47;11.63;;;2.40;;
9860;SDS011;4969;52.304;4.968;2024-03-23T07:51:15;7.63;;;2.67;;
9860;SDS011;4969;52.304;4.968;2024-03-23T07:53:42;8.60;;;2.47;;
9860;SDS011;4969;52.304;4.968;2024-03-23T07:56:11;9.23;;;3.07;;
9860;SDS011;4969;52.304;4.968;2024-03-23T07:58:37;11.50;;;2.67;;
9860;SDS011;4969;52.304;4.968;2024-03-23T08:01:04;8.27;;;2.73;;
9860;SDS011;4969;52.304;4.968;2024-03-23T08:03:32;8.63;;;2.93;;
9860;SDS011;4969;52.304;4.968;2024-03-23T08:06:07;6.97;;;2.40;;
9860;SDS011;4969;52.304;4.968;2024-03-23T08:08:33;7.67;;;2.60;;
9860;SDS011;4969;52.304;4.968;2024-03-23T08:11:00;8.17;;;2.33;;
9860;SDS011;4969;52.304;4.968;2024-03-23T08:13:26;7.60;;;2.43;;
9860;SDS011;4969;52.304;4.968;2024-03-23T08:15:55;9.43;;;2.70;;
9860;SDS011;4969;52.304;4.968;2024-03-23T08:18:22;10.57;;;2.50;;
9860;SDS011;4969;52.304;4.968;2024-03-23T08:20:54;6.77;;;2.13;;
9860;SDS011;4969;52.304;4.968;2024-03-23T08:23:22;7.87;;;2.40;;
9860;SDS011;4969;52.304;4.968;2024-03-23T08:25:49;6.57;;;2.73;;
9860;SDS011;4969;52.304;4.968;2024-03-23T08:28:14;11.90;;;3.00;;
9860;SDS011;4969;52.304;4.968;2024-03-23T08:30:41;6.27;;;2.50;;
9860;SDS011;4969;52.304;4.968;2024-03-23T08:33:06;8.20;;;2.63;;
9860;SDS011;4969;52.304;4.968;2024-03-23T08:35:33;11.43;;;2.03;;
9860;SDS011;4969;52.304;4.968;2024-03-23T08:37:59;7.60;;;2.27;;
9860;SDS011;4969;52.304;4.968;2024-03-23T08:40:27;8.50;;;2.90;;
9860;SDS011;4969;52.304;4.968;2024-03-23T08:42:53;6.37;;;2.07;;
9860;SDS011;4969;52.304;4.968;2024-03-23T08:45:19;10.40;;;2.60;;
9860;SDS011;4969;52.304;4.968;2024-03-23T08:47:45;6.50;;;2.20;;
9860;SDS011;4969;52.304;4.968;2024-03-23T08:50:17;6.00;;;2.23;;
9860;SDS011;4969;52.304;4.968;2024-03-23T08:52:42;5.07;;;1.80;;
9860;SDS011;4969;52.304;4.968;2024-03-23T08:55:09;9.87;;;3.00;;
9860;SDS011;4969;52.304;4.968;2024-03-23T08:57:36;8.23;;;2.30;;
9860;SDS011;4969;52.304;4.968;2024-03-23T09:00:03;8.80;;;2.60;;
9860;SDS011;4969;52.304;4.968;2024-03-23T09:02:31;10.00;;;2.63;;
9860;SDS011;4969;52.304;4.968;2024-03-23T09:04:57;13.10;;;2.70;;
9860;SDS011;4969;52.304;4.968;2024-03-23T09:07:29;9.07;;;2.20;;
9860;SDS011;4969;52.304;4.968;2024-03-23T09:09:55;7.37;;;2.40;;
9860;SDS011;4969;52.304;4.968;2024-03-23T09:12:21;6.97;;;2.27;;
9860;SDS011;4969;52.304;4.968;2024-03-23T09:14:49;6.37;;;2.33;;
9860;SDS011;4969;52.304;4.968;2024-03-23T09:17:14;9.37;;;2.50;;
9860;SDS011;4969;52.304;4.968;2024-03-23T09:19:41;8.90;;;2.77;;
9860;SDS011;4969;52.304;4.968;2024-03-23T09:22:06;7.27;;;2.73;;
9860;SDS011;4969;52.304;4.968;2024-03-23T09:24:33;6.50;;;2.27;;
9860;SDS011;4969;52.304;4.968;2024-03-23T09:26:59;7.80;;;2.63;;
9860;SDS011;4969;52.304;4.968;2024-03-23T09:29:25;6.57;;;2.57;;
9860;SDS011;4969;52.304;4.968;2024-03-23T09:31:52;8.37;;;2.77;;
9860;SDS011;4969;52.304;4.968;2024-03-23T09:34:19;10.77;;;2.80;;
9860;SDS011;4969;52.304;4.968;2024-03-23T09:36:45;11.87;;;3.20;;
9860;SDS011;4969;52.304;4.968;2024-03-23T09:39:11;9.23;;;2.80;;
9860;SDS011;4969;52.304;4.968;2024-03-23T09:41:38;12.13;;;3.00;;
9860;SDS011;4969;52.304;4.968;2024-03-23T09:44:06;10.07;;;2.40;;
9860;SDS011;4969;52.304;4.968;2024-03-23T09:46:32;6.97;;;2.73;;
9860;SDS011;4969;52.304;4.968;2024-03-23T09:49:02;8.87;;;2.50;;
9860;SDS011;4969;52.304;4.968;2024-03-23T09:51:29;8.27;;;2.60;;
9860;SDS011;4969;52.304;4.968;2024-03-23T09:53:56;6.87;;;2.80;;
9860;SDS011;4969;52.304;4.968;2024-03-23T09:56:22;7.03;;;2.57;;
9860;SDS011;4969;52.304;4.968;2024-03-23T09:58:49;9.97;;;2.87;;
9860;SDS011;4969;52.304;4.968;2024-03-23T10:01:15;10.87;;;2.80;;
9860;SDS011;4969;52.304;4.968;2024-03-23T10:03:42;8.40;;;2.50;;
9860;SDS011;4969;52.304;4.968;2024-03-23T10:06:09;7.90;;;2.20;;
9860;SDS011;4969;52.304;4.968;2024-03-23T10:08:36;9.57;;;2.37;;
9860;SDS011;4969;52.304;4.968;2024-03-23T10:11:12;5.37;;;2.17;;
9860;SDS011;4969;52.304;4.968;2024-03-23T10:13:40;11.47;;;2.43;;
9860;SDS011;4969;52.304;4.968;2024-03-23T10:16:07;10.90;;;2.90;;
9860;SDS011;4969;52.304;4.968;2024-03-23T10:18:36;6.63;;;2.30;;
9860;SDS011;4969;52.304;4.968;2024-03-23T10:21:06;7.20;;;2.60;;
9860;SDS011;4969;52.304;4.968;2024-03-23T10:23:37;6.73;;;2.33;;
9860;SDS011;4969;52.304;4.968;2024-03-23T10:26:13;8.00;;;2.63;;
9860;SDS011;4969;52.304;4.968;2024-03-23T10:28:50;6.47;;;2.37;;
9860;SDS011;4969;52.304;4.968;2024-03-23T10:31:16;8.70;;;2.53;;
9860;SDS011;4969;52.304;4.968;2024-03-23T10:33:44;5.33;;;1.93;;
9860;SDS011;4969;52.304;4.968;2024-03-23T10:36:10;14.70;;;2.27;;
9860;SDS011;4969;52.304;4.968;2024-03-23T10:38:38;8.10;;;2.73;;
9860;SDS011;4969;52.304;4.968;2024-03-23T10:41:05;10.23;;;2.57;;
9860;SDS011;4969;52.304;4.968;2024-03-23T10:43:33;7.40;;;2.37;;
9860;SDS011;4969;52.304;4.968;2024-03-23T10:46:00;6.57;;;2.30;;
9860;SDS011;4969;52.304;4.968;2024-03-23T10:48:26;5.60;;;1.97;;
9860;SDS011;4969;52.304;4.968;2024-03-23T10:50:52;11.43;;;2.40;;
9860;SDS011;4969;52.304;4.968;2024-03-23T10:53:19;8.30;;;2.80;;
9860;SDS011;4969;52.304;4.968;2024-03-23T10:55:49;6.97;;;2.60;;
9860;SDS011;4969;52.304;4.968;2024-03-23T10:58:16;6.47;;;2.80;;
9860;SDS011;4969;52.304;4.968;2024-03-23T11:00:44;7.67;;;2.30;;
9860;SDS011;4969;52.304;4.968;2024-03-23T11:03:29;6.70;;;2.40;;
9860;SDS011;4969;52.304;4.968;2024-03-23T11:05:55;12.10;;;2.50;;
9860;SDS011;4969;52.304;4.968;2024-03-23T11:08:32;9.20;;;2.87;;
9860;SDS011;4969;52.304;4.968;2024-03-23T11:13:47;9.80;;;3.30;;
9860;SDS011;4969;52.304;4.968;2024-03-23T11:16:14;6.70;;;2.20;;
9860;SDS011;4969;52.304;4.968;2024-03-23T11:18:41;7.57;;;2.80;;
9860;SDS011;4969;52.304;4.968;2024-03-23T11:21:08;8.17;;;2.53;;
9860;SDS011;4969;52.304;4.968;2024-03-23T11:23:35;9.40;;;2.30;;
9860;SDS011;4969;52.304;4.968;2024-03-23T11:26:00;9.23;;;2.73;;
9860;SDS011;4969;52.304;4.968;2024-03-23T11:28:30;10.77;;;2.60;;
9860;SDS011;4969;52.304;4.968;2024-03-23T11:30:55;7.73;;;2.30;;
9860;SDS011;4969;52.304;4.968;2024-03-23T11:33:22;10.50;;;2.63;;
9860;SDS011;4969;52.304;4.968;2024-03-23T11:35:48;9.30;;;2.60;;
9860;SDS011;4969;52.304;4.968;2024-03-23T11:38:16;8.57;;;3.00;;
9860;SDS011;4969;52.304;4.968;2024-03-23T11:40:43;6.83;;;2.87;;
9860;SDS011;4969;52.304;4.968;2024-03-23T11:43:11;8.33;;;2.53;;
9860;SDS011;4969;52.304;4.968;2024-03-23T11:45:39;7.40;;;2.30;;
9860;SDS011;4969;52.304;4.968;2024-03-23T11:48:09;8.00;;;2.47;;
9860;SDS011;4969;52.304;4.968;2024-03-23T11:50:36;8.20;;;2.50;;
9860;SDS011;4969;52.304;4.968;2024-03-23T11:53:06;7.50;;;2.70;;
9860;SDS011;4969;52.304;4.968;2024-03-23T11:55:39;9.73;;;2.67;;
9860;SDS011;4969;52.304;4.968;2024-03-23T11:58:07;6.73;;;2.50;;
9860;SDS011;4969;52.304;4.968;2024-03-23T12:00:33;9.10;;;2.63;;
9860;SDS011;4969;52.304;4.968;2024-03-23T12:03:01;8.37;;;2.07;;
9860;SDS011;4969;52.304;4.968;2024-03-23T12:05:27;8.43;;;2.63;;
9860;SDS011;4969;52.304;4.968;2024-03-23T12:07:54;11.80;;;2.73;;
9860;SDS011;4969;52.304;4.968;2024-03-23T12:10:20;6.13;;;2.03;;
9860;SDS011;4969;52.304;4.968;2024-03-23T12:12:46;6.10;;;2.07;;
9860;SDS011;4969;52.304;4.968;2024-03-23T12:15:26;5.00;;;1.53;;
9860;SDS011;4969;52.304;4.968;2024-03-23T12:18:06;2.43;;;1.40;;
9860;SDS011;4969;52.304;4.968;2024-03-23T12:20:32;6.23;;;1.97;;
9860;SDS011;4969;52.304;4.968;2024-03-23T12:23:04;4.60;;;1.90;;
9860;SDS011;4969;52.304;4.968;2024-03-23T12:25:30;7.17;;;2.80;;
9860;SDS011;4969;52.304;4.968;2024-03-23T12:27:58;5.50;;;2.40;;
9860;SDS011;4969;52.304;4.968;2024-03-23T12:30:24;6.73;;;2.47;;
9860;SDS011;4969;52.304;4.968;2024-03-23T12:32:50;4.40;;;1.70;;
9860;SDS011;4969;52.304;4.968;2024-03-23T12:35:18;5.40;;;2.10;;
9860;SDS011;4969;52.304;4.968;2024-03-23T12:37:45;7.90;;;2.20;;
9860;SDS011;4969;52.304;4.968;2024-03-23T12:40:10;6.20;;;2.30;;
9860;SDS011;4969;52.304;4.968;2024-03-23T12:42:37;3.97;;;1.73;;
9860;SDS011;4969;52.304;4.968;2024-03-23T12:45:03;6.27;;;2.20;;
9860;SDS011;4969;52.304;4.968;2024-03-23T12:47:30;6.10;;;2.20;;
9860;SDS011;4969;52.304;4.968;2024-03-23T12:49:56;6.37;;;2.30;;
9860;SDS011;4969;52.304;4.968;2024-03-23T12:52:23;6.70;;;2.23;;
9860;SDS011;4969;52.304;4.968;2024-03-23T12:54:53;6.77;;;2.23;;
9860;SDS011;4969;52.304;4.968;2024-03-23T12:57:21;5.40;;;1.87;;
9860;SDS011;4969;52.304;4.968;2024-03-23T12:59:47;8.73;;;2.80;;
9860;SDS011;4969;52.304;4.968;2024-03-23T13:02:15;6.70;;;2.10;;
9860;SDS011;4969;52.304;4.968;2024-03-23T13:04:41;5.97;;;2.20;;
9860;SDS011;4969;52.304;4.968;2024-03-23T13:07:08;6.93;;;2.00;;
9860;SDS011;4969;52.304;4.968;2024-03-23T13:09:35;4.70;;;1.53;;
9860;SDS011;4969;52.304;4.968;2024-03-23T13:12:02;2.43;;;1.33;;
9860;SDS011;4969;52.304;4.968;2024-03-23T13:14:28;5.33;;;1.60;;
9860;SDS011;4969;52.304;4.968;2024-03-23T13:16:54;3.93;;;1.93;;
9860;SDS011;4969;52.304;4.968;2024-03-23T13:19:20;3.87;;;1.40;;
9860;SDS011;4969;52.304;4.968;2024-03-23T13:21:51;4.90;;;1.47;;
9860;SDS011;4969;52.304;4.968;2024-03-23T13:24:17;5.93;;;2.10;;
9860;SDS011;4969;52.304;4.968;2024-03-23T13:26:45;4.73;;;1.73;;
9860;SDS011;4969;52.304;4.968;2024-03-23T13:29:10;6.03;;;2.03;;
9860;SDS011;4969;52.304;4.968;2024-03-23T13:31:37;8.43;;;2.43;;
9860;SDS011;4969;52.304;4.968;2024-03-23T13:34:02;5.43;;;2.00;;
9860;SDS011;4969;52.304;4.968;2024-03-23T13:36:29;8.67;;;2.50;;
9860;SDS011;4969;52.304;4.968;2024-03-23T13:38:54;10.90;;;2.47;;
9860;SDS011;4969;52.304;4.968;2024-03-23T13:41:21;7.93;;;2.07;;
9860;SDS011;4969;52.304;4.968;2024-03-23T13:43:48;4.60;;;1.90;;
9860;SDS011;4969;52.304;4.968;2024-03-23T13:46:14;6.17;;;2.20;;
9860;SDS011;4969;52.304;4.968;2024-03-23T13:48:40;6.97;;;1.93;;
9860;SDS011;4969;52.304;4.968;2024-03-23T13:51:07;4.60;;;2.00;;
9860;SDS011;4969;52.304;4.968;2024-03-23T13:53:32;6.87;;;1.60;;
9860;SDS011;4969;52.304;4.968;2024-03-23T13:55:59;6.00;;;1.77;;
9860;SDS011;4969;52.304;4.968;2024-03-23T13:58:25;5.67;;;1.70;;
9860;SDS011;4969;52.304;4.968;2024-03-23T14:00:53;6.40;;;2.10;;
9860;SDS011;4969;52.304;4.968;2024-03-23T14:03:18;4.03;;;1.47;;
9860;SDS011;4969;52.304;4.968;2024-03-23T14:05:45;5.00;;;1.90;;
9860;SDS011;4969;52.304;4.968;2024-03-23T14:08:12;3.50;;;1.50;;
9860;SDS011;4969;52.304;4.968;2024-03-23T14:10:40;4.57;;;1.73;;
9860;SDS011;4969;52.304;4.968;2024-03-23T14:13:06;3.97;;;1.87;;
9860;SDS011;4969;52.304;4.968;2024-03-23T14:15:32;4.47;;;1.90;;
9860;SDS011;4969;52.304;4.968;2024-03-23T14:17:59;6.87;;;2.20;;
9860;SDS011;4969;52.304;4.968;2024-03-23T14:20:26;6.83;;;2.07;;
9860;SDS011;4969;52.304;4.968;2024-03-23T14:22:51;7.97;;;2.20;;
9860;SDS011;4969;52.304;4.968;2024-03-23T14:25:18;8.43;;;2.07;;
9860;SDS011;4969;52.304;4.968;2024-03-23T14:27:44;4.67;;;1.57;;
9860;SDS011;4969;52.304;4.968;2024-03-23T14:30:12;5.73;;;1.60;;
9860;SDS011;4969;52.304;4.968;2024-03-23T14:32:38;5.30;;;2.00;;
9860;SDS011;4969;52.304;4.968;2024-03-23T14:35:06;6.23;;;1.33;;
9860;SDS011;4969;52.304;4.968;2024-03-23T14:37:35;6.27;;;1.90;;
9860;SDS011;4969;52.304;4.968;2024-03-23T14:40:01;5.87;;;2.10;;
9860;SDS011;4969;52.304;4.968;2024-03-23T14:42:28;6.50;;;2.30;;
9860;SDS011;4969;52.304;4.968;2024-03-23T14:44:55;5.90;;;2.23;;
9860;SDS011;4969;52.304;4.968;2024-03-23T14:47:21;4.70;;;1.70;;
9860;SDS011;4969;52.304;4.968;2024-03-23T14:49:47;4.73;;;1.90;;
9860;SDS011;4969;52.304;4.968;2024-03-23T14:52:16;7.07;;;2.33;;
9860;SDS011;4969;52.304;4.968;2024-03-23T14:54:43;9.23;;;2.50;;
9860;SDS011;4969;52.304;4.968;2024-03-23T14:57:10;6.97;;;2.10;;
9860;SDS011;4969;52.304;4.968;2024-03-23T14:59:38;6.27;;;2.23;;
9860;SDS011;4969;52.304;4.968;2024-03-23T15:02:05;6.10;;;2.10;;
9860;SDS011;4969;52.304;4.968;2024-03-23T15:04:31;4.93;;;1.87;;
9860;SDS011;4969;52.304;4.968;2024-03-23T15:06:57;5.93;;;1.83;;
9860;SDS011;4969;52.304;4.968;2024-03-23T15:09:24;3.93;;;1.80;;
9860;SDS011;4969;52.304;4.968;2024-03-23T15:11:51;5.97;;;1.93;;
9860;SDS011;4969;52.304;4.968;2024-03-23T15:14:16;6.63;;;2.20;;
9860;SDS011;4969;52.304;4.968;2024-03-23T15:16:43;5.53;;;1.90;;
9860;SDS011;4969;52.304;4.968;2024-03-23T15:19:09;7.20;;;1.97;;
9860;SDS011;4969;52.304;4.968;2024-03-23T15:21:35;6.43;;;2.20;;
9860;SDS011;4969;52.304;4.968;2024-03-23T15:24:01;5.60;;;2.03;;
9860;SDS011;4969;52.304;4.968;2024-03-23T15:26:29;9.73;;;2.00;;
9860;SDS011;4969;52.304;4.968;2024-03-23T15:28:54;5.77;;;1.77;;
9860;SDS011;4969;52.304;4.968;2024-03-23T15:31:35;6.47;;;2.10;;
9860;SDS011;4969;52.304;4.968;2024-03-23T15:34:01;6.43;;;2.00;;
9860;SDS011;4969;52.304;4.968;2024-03-23T15:36:28;7.30;;;2.23;;
9860;SDS011;4969;52.304;4.968;2024-03-23T15:38:54;6.03;;;1.77;;
9860;SDS011;4969;52.304;4.968;2024-03-23T15:41:20;6.33;;;1.80;;
9860;SDS011;4969;52.304;4.968;2024-03-23T15:43:49;4.33;;;2.00;;
9860;SDS011;4969;52.304;4.968;2024-03-23T15:46:16;6.77;;;1.90;;
9860;SDS011;4969;52.304;4.968;2024-03-23T15:48:44;6.20;;;1.90;;
9860;SDS011;4969;52.304;4.968;2024-03-23T15:51:12;6.87;;;2.20;;
9860;SDS011;4969;52.304;4.968;2024-03-23T15:53:37;6.73;;;1.80;;
9860;SDS011;4969;52.304;4.968;2024-03-23T15:56:04;6.27;;;2.27;;
9860;SDS011;4969;52.304;4.968;2024-03-23T15:58:30;5.63;;;2.03;;
9860;SDS011;4969;52.304;4.968;2024-03-23T16:01:01;5.73;;;2.00;;
9860;SDS011;4969;52.304;4.968;2024-03-23T16:03:28;5.97;;;2.33;;
9860;SDS011;4969;52.304;4.968;2024-03-23T16:05:56;5.23;;;1.83;;
9860;SDS011;4969;52.304;4.968;2024-03-23T16:08:22;3.57;;;1.80;;